Météo Nord-Pas-de-Calais   La météo au plus près de chez vous

Station météorologique

Observations météo à Quimper (29216)

29216001 82 m Dernier relevé à 17:00
22.1°C
Humidité 76 % Vent 20.5 km/h 1023.4 hPa

Journée consultée

Jeudi 3 Septembre 2026

Synthèse de la journée

Périodes de référence en UTC

Température maximale

23.8°C

à 14:36

06h 06h

Température minimale

18.3°C

à 05:42

18h 18h

Rafale maximale

34 km/h

à 15:12

00h 00h

Précipitations

0 mm

Cumul quotidien

06h 06h

Ensoleillement

3h 41 mins

Durée quotidienne

00h 00h

Graphiques de la journée

Heure locale Réduire

Données détaillées

Relevés météo

Pas de 6 minutes Afficher les relevés infra-horaires
Relevés météo détaillés à Quimper pour le Jeudi 3 Septembre 2026
Heure Température °C Point de rosée °C Humidité % Vent moyen (raf.), km/h Précipitations mm Température à 10 cm °C Température à 20 cm °C Température à 50 cm °C Visibilité m État du sol   Ensoleillement min Rayonnement global W/m² Pression hPa Nébulosité Octas
17:00 22.1 °C 18.3 °C 79 % 22 km/h (31 km/h) 0 mm0 mm 20.8 °C 19.7 °C 19.1 °C 60000 m 0   2 min 133.8 W/m² 1023.6 hPa 8 Octas
16:54 22.2 °C 18.6 °C 80 % 22 km/h (31 km/h) 0 mm0 mm 20.8 °C 19.7 °C 19.1 °C 60000 m 0   1 min 125.7 W/m² 1023.6 hPa
16:48 22.2 °C 18.2 °C 78 % 20 km/h (28 km/h) 0 mm0 mm 20.8 °C 19.6 °C 19.1 °C 60000 m 0   0 min 120 W/m² 1023.6 hPa
16:42 22.6 °C 18.2 °C 76 % 20 km/h (27 km/h) 0 mm0 mm 20.7 °C 19.7 °C 19.1 °C 60000 m 0   3 min 153.5 W/m² 1023.6 hPa
16:36 23 °C 18.3 °C 75 % 21 km/h (32 km/h) 0 mm0 mm 20.7 °C 19.6 °C 19.1 °C 60000 m 0   5 min 179.5 W/m² 1023.6 hPa
16:30 23.5 °C 18.2 °C 72 % 23 km/h (32 km/h) 0 mm0 mm 20.6 °C 19.6 °C 19.1 °C 60000 m 0   5 min 217.8 W/m² 1023.5 hPa
16:24 23.3 °C 18.4 °C 74 % 24 km/h (32 km/h) 0 mm0 mm 20.6 °C 19.6 °C 19.2 °C 60000 m 0   6 min 237.1 W/m² 1023.4 hPa
16:18 23.2 °C 18.3 °C 74 % 23 km/h (31 km/h) 0 mm0 mm 20.5 °C 19.6 °C 19.1 °C 60000 m 0   6 min 215.2 W/m² 1023.4 hPa
16:12 23.2 °C 18.5 °C 75 % 23 km/h (33 km/h) 0 mm0 mm 20.5 °C 19.6 °C 19.2 °C 60000 m 0   4 min 192.3 W/m² 1023.4 hPa
16:06 23.3 °C 19 °C 77 % 22 km/h (31 km/h) 0 mm0 mm 20.5 °C 19.6 °C 19.2 °C 60000 m 0   6 min 228.7 W/m² 1023.4 hPa
16:00 22.7 °C 18.2 °C 76 % 21 km/h (31 km/h) 0 mm0 mm 20.5 °C 19.5 °C 19.2 °C 60000 m 0   6 min 195.5 W/m² 1023.4 hPa 8 Octas
15:54 23 °C 18.5 °C 76 % 22 km/h (31 km/h) 0 mm0 mm 20.4 °C 19.5 °C 19.2 °C 60000 m 0   6 min 210.7 W/m² 1023.4 hPa
15:48 23.5 °C 18.8 °C 75 % 23 km/h (30 km/h) 0 mm0 mm 20.4 °C 19.5 °C 19.2 °C 60000 m 0   6 min 216.1 W/m² 1023.4 hPa
15:42 23.1 °C 18.6 °C 76 % 20 km/h (31 km/h) 0 mm0 mm 20.3 °C 19.5 °C 19.2 °C 60000 m 0   6 min 234.3 W/m² 1023.4 hPa
15:36 22.9 °C 18.2 °C 75 % 20 km/h (32 km/h) 0 mm0 mm 20.2 °C 19.4 °C 19.1 °C 60000 m 0   6 min 248.3 W/m² 1023.4 hPa
15:30 23 °C 18.3 °C 75 % 21 km/h (31 km/h) 0 mm0 mm 20.2 °C 19.4 °C 19.1 °C 60000 m 0   6 min 229.8 W/m² 1023.4 hPa
15:24 23.2 °C 18.5 °C 75 % 22 km/h (31 km/h) 0 mm0 mm 20.2 °C 19.4 °C 19.1 °C 60000 m 0   6 min 237.8 W/m² 1023.4 hPa
15:18 23.6 °C 18.7 °C 74 % 23 km/h (33 km/h) 0 mm0 mm 20.1 °C 19.4 °C 19.1 °C 60000 m 0   6 min 269.2 W/m² 1023.4 hPa
15:12 23.3 °C 18.8 °C 76 % 23 km/h (33 km/h) 0 mm0 mm 20.1 °C 19.4 °C 19.1 °C 60000 m 0   6 min 243 W/m² 1023.4 hPa
15:06 23 °C 18.7 °C 77 % 22 km/h (32 km/h) 0 mm0 mm 20.1 °C 19.4 °C 19.2 °C 60000 m 0   6 min 266.7 W/m² 1023.4 hPa
15:00 22.8 °C 18.8 °C 78 % 23 km/h (32 km/h) 0 mm0 mm 20 °C 19.3 °C 19.2 °C 60000 m 0   6 min 223.3 W/m² 1023.4 hPa 8 Octas
14:54 22.8 °C 18.6 °C 77 % 23 km/h (32 km/h) 0 mm0 mm 20 °C 19.4 °C 19.1 °C 60000 m 0   6 min 206.5 W/m² 1023.4 hPa
14:48 23.4 °C 18.7 °C 75 % 20 km/h (33 km/h) 0 mm0 mm 20 °C 19.3 °C 19.1 °C 60000 m 0   6 min 252.9 W/m² 1023.4 hPa
14:42 23.4 °C 18.7 °C 75 % 21 km/h (29 km/h) 0 mm0 mm 19.9 °C 19.3 °C 19.1 °C 60000 m 0   6 min 251 W/m² 1023.4 hPa
14:36 23.8 °C 18.9 °C 74 % 21 km/h (29 km/h) 0 mm0 mm 19.9 °C 19.4 °C 19.1 °C 60000 m 0   6 min 276.4 W/m² 1023.4 hPa
14:30 23.7 °C 19 °C 75 % 19 km/h (29 km/h) 0 mm0 mm 19.9 °C 19.3 °C 19.2 °C 19730 m 0   6 min 238.7 W/m² 1023.4 hPa
14:24 23.5 °C 18.8 °C 75 % 18 km/h (29 km/h) 0 mm0 mm 19.8 °C 19.3 °C 19.1 °C 19730 m 0   6 min 270.4 W/m² 1023.5 hPa
14:18 22.9 °C 18.4 °C 76 % 19 km/h (28 km/h) 0 mm0 mm 19.8 °C 19.3 °C 19.2 °C 60000 m 0   6 min 242.2 W/m² 1023.5 hPa
14:12 23.6 °C 18.9 °C 75 % 20 km/h (29 km/h) 0 mm0 mm 19.8 °C 19.3 °C 19.1 °C 60000 m 0   6 min 290.1 W/m² 1023.5 hPa
14:06 23 °C 18.7 °C 77 % 21 km/h (29 km/h) 0 mm0 mm 19.7 °C 19.3 °C 19.1 °C 60000 m 0   2 min 188.7 W/m² 1023.6 hPa
14:00 23 °C 18.7 °C 77 % 21 km/h (30 km/h) 0 mm0 mm 19.7 °C 19.3 °C 19.1 °C 60000 m 0   5 min 247 W/m² 1023.6 hPa 8 Octas
13:54 22.7 °C 18.7 °C 78 % 20 km/h (30 km/h) 0 mm0 mm 19.7 °C 19.3 °C 19.1 °C 60000 m 0   0 min 165.4 W/m² 1023.7 hPa
13:48 22.7 °C 18.7 °C 78 % 21 km/h (30 km/h) 0 mm0 mm 19.7 °C 19.3 °C 19.1 °C 60000 m 0   3 min 202.6 W/m² 1023.7 hPa
13:42 22.9 °C 18.7 °C 77 % 19 km/h (29 km/h) 0 mm0 mm 19.6 °C 19.3 °C 19.1 °C 60000 m 0   5 min 228.3 W/m² 1023.7 hPa
13:36 22.9 °C 18.9 °C 78 % 19 km/h (30 km/h) 0 mm0 mm 19.6 °C 19.3 °C 19.1 °C 60000 m 0   6 min 243.6 W/m² 1023.7 hPa
13:30 22.8 °C 18.6 °C 77 % 20 km/h (31 km/h) 0 mm0 mm 19.6 °C 19.3 °C 19.2 °C 60000 m 0   6 min 231.5 W/m² 1023.7 hPa
13:24 23.2 °C 18.7 °C 76 % 21 km/h (30 km/h) 0 mm0 mm 19.6 °C 19.2 °C 19.2 °C 60000 m 0   6 min 273.5 W/m² 1023.7 hPa
13:18 22.6 °C 18.6 °C 78 % 21 km/h (30 km/h) 0 mm0 mm 19.5 °C 19.3 °C 19.1 °C 60000 m 0   6 min 216.2 W/m² 1023.7 hPa
13:12 22.4 °C 18.6 °C 79 % 22 km/h (30 km/h) 0 mm0 mm 19.5 °C 19.2 °C 19.1 °C 60000 m 0   5 min 191.9 W/m² 1023.7 hPa
13:06 22.2 °C 18.8 °C 81 % 21 km/h (29 km/h) 0 mm0 mm 19.5 °C 19.2 °C 19.2 °C 60000 m 0   1 min 172.1 W/m² 1023.8 hPa
13:00 22.1 °C 18.7 °C 81 % 20 km/h (29 km/h) 0 mm0 mm 19.5 °C 19.3 °C 19.1 °C 60000 m 0   0 min 161.9 W/m² 1023.8 hPa 8 Octas
12:54 22.2 °C 19 °C 82 % 19 km/h (29 km/h) 0 mm0 mm 19.5 °C 19.2 °C 19.1 °C 60000 m 0   0 min 166.7 W/m² 1023.8 hPa
12:48 21.8 °C 18.6 °C 82 % 20 km/h (30 km/h) 0 mm0 mm 19.5 °C 19.3 °C 19.1 °C 60000 m 0   1 min 149.8 W/m² 1023.8 hPa
12:42 22 °C 18.6 °C 81 % 21 km/h (30 km/h) 0 mm0 mm 19.4 °C 19.2 °C 19.1 °C 60000 m 0   0 min 154.4 W/m² 1023.8 hPa
12:36 22 °C 18.8 °C 82 % 20 km/h (30 km/h) 0 mm0 mm 19.4 °C 19.2 °C 19.1 °C 60000 m 0   1 min 155.7 W/m² 1023.9 hPa
12:30 22 °C 18.4 °C 80 % 19 km/h (30 km/h) 0 mm0 mm 19.4 °C 19.2 °C 19.1 °C 60000 m 0   4 min 185.2 W/m² 1023.8 hPa
12:24 22.5 °C 18.9 °C 80 % 18 km/h (27 km/h) 0 mm0 mm 19.4 °C 19.2 °C 19.1 °C 60000 m 0   6 min 307.5 W/m² 1023.7 hPa
12:18 21.8 °C 19 °C 84 % 18 km/h (27 km/h) 0 mm0 mm 19.4 °C 19.2 °C 19.1 °C 60000 m 0   6 min 266.7 W/m² 1023.7 hPa
12:12 21.1 °C 18.8 °C 87 % 18 km/h (28 km/h) 0 mm0 mm 19.4 °C 19.2 °C 19.1 °C 60000 m 0   4 min 173.3 W/m² 1023.9 hPa
12:06 20.8 °C 18.6 °C 87 % 19 km/h (27 km/h) 0 mm0 mm 19.4 °C 19.2 °C 19.1 °C 60000 m 0   0 min 116 W/m² 1023.9 hPa
12:00 20.9 °C 19 °C 89 % 18 km/h (25 km/h) 0 mm0 mm 19.3 °C 19.2 °C 19.1 °C 60000 m 0   0 min 131.9 W/m² 1023.8 hPa 8 Octas
11:54 20.5 °C 18.8 °C 90 % 17 km/h (24 km/h) 0 mm0 mm 19.4 °C 19.2 °C 19.1 °C 60000 m 0   2 min 145.6 W/m² 1023.9 hPa
11:48 20.2 °C 18.9 °C 92 % 17 km/h (26 km/h) 0 mm0 mm 19.4 °C 19.2 °C 19.1 °C 59810 m 0   0 min 124.4 W/m² 1023.9 hPa
11:42 20.1 °C 19.3 °C 95 % 15 km/h (24 km/h) 0 mm0 mm 19.4 °C 19.2 °C 19.1 °C 17940 m 0   0 min 83.8 W/m² 1023.9 hPa
11:36 19.9 °C 19.2 °C 96 % 14 km/h (21 km/h) 0 mm0 mm 19.3 °C 19.2 °C 19.1 °C 9190 m 0   0 min 62.1 W/m² 1023.9 hPa
11:30 19.8 °C 19.1 °C 96 % 13 km/h (23 km/h) 0 mm0 mm 19.3 °C 19.2 °C 19.1 °C 5540 m 1   0 min 63.6 W/m² 1023.8 hPa
11:24 19.8 °C 19.1 °C 96 % 14 km/h (23 km/h) 0 mm0 mm 19.3 °C 19.2 °C 19.1 °C 11390 m 1   0 min 62.5 W/m² 1023.8 hPa
11:18 19.8 °C 19.3 °C 97 % 15 km/h (23 km/h) 0 mm0 mm 19.3 °C 19.2 °C 19.1 °C 16190 m 1   0 min 82.7 W/m² 1023.7 hPa
11:12 19.6 °C 19.1 °C 97 % 14 km/h (23 km/h) 0 mm0 mm 19.3 °C 19.2 °C 19.1 °C 5630 m 1   0 min 85.5 W/m² 1023.7 hPa
11:06 19.5 °C 19.2 °C 98 % 12 km/h (19 km/h) 0 mm0 mm 19.3 °C 19.2 °C 19.1 °C 3390 m 1   0 min 54.3 W/m² 1023.7 hPa
11:00 19.5 °C 19.2 °C 98 % 12 km/h (19 km/h) 0 mm0 mm 19.3 °C 19.2 °C 19.1 °C 2600 m 1   0 min 41.9 W/m² 1023.7 hPa 8 Octas
10:54 19.6 °C 19.3 °C 98 % 15 km/h (23 km/h) 0 mm0 mm 19.3 °C 19.2 °C 19.1 °C 2520 m 1   0 min 47.9 W/m² 1023.8 hPa
10:48 19.5 °C 19.2 °C 98 % 15 km/h (23 km/h) 0 mm0 mm 19.3 °C 19.2 °C 19.1 °C 2540 m 1   0 min 77.5 W/m² 1023.7 hPa
10:42 19.5 °C 19.2 °C 98 % 15 km/h (23 km/h) 0 mm0 mm 19.3 °C 19.2 °C 19.1 °C 2700 m 0 min 55.6 W/m² 1023.7 hPa
10:36 19.4 °C 19.1 °C 98 % 15 km/h (21 km/h) 0 mm0 mm 19.3 °C 19.2 °C 19.1 °C 2300 m 1   0 min 53.7 W/m² 1023.7 hPa
10:30 19.4 °C 19.1 °C 98 % 15 km/h (21 km/h) 0 mm0 mm 19.3 °C 19.2 °C 19.1 °C 2430 m 1   0 min 44.2 W/m² 1023.7 hPa
10:24 19.4 °C 19.1 °C 98 % 16 km/h (25 km/h) 0 mm0 mm 19.3 °C 19.3 °C 19.1 °C 3050 m 1   0 min 47.2 W/m² 1023.7 hPa
10:18 19.4 °C 19.1 °C 98 % 14 km/h (23 km/h) 0 mm0 mm 19.3 °C 19.2 °C 19.1 °C 2980 m 1   0 min 41.9 W/m² 1023.7 hPa
10:12 19.4 °C 19.1 °C 98 % 12 km/h (19 km/h) 0 mm0 mm 19.3 °C 19.2 °C 19.1 °C 2390 m 0 min 32.2 W/m² 1023.6 hPa
10:06 19.3 °C 19 °C 98 % 13 km/h (19 km/h) 0 mm0 mm 19.3 °C 19.2 °C 19.1 °C 2100 m 0 min 26.1 W/m² 1023.6 hPa
10:00 19.3 °C 19 °C 98 % 14 km/h (20 km/h) 0 mm0 mm 19.3 °C 19.2 °C 19.1 °C 2520 m 1   0 min 27.4 W/m² 1023.6 hPa 8 Octas
09:54 19.3 °C 19 °C 98 % 13 km/h (20 km/h) 0 mm0 mm 19.3 °C 19.2 °C 19.1 °C 3270 m 1   0 min 27.3 W/m² 1023.6 hPa
09:48 19.2 °C 18.9 °C 98 % 13 km/h (21 km/h) 0 mm0 mm 19.3 °C 19.3 °C 19.2 °C 3660 m 1   0 min 24.1 W/m² 1023.6 hPa
09:42 19.2 °C 18.9 °C 98 % 13 km/h (21 km/h) 0 mm0 mm 19.3 °C 19.2 °C 19.1 °C 4840 m 0 min 20 W/m² 1023.6 hPa
09:36 19.2 °C 18.9 °C 98 % 12 km/h (22 km/h) 0 mm0 mm 19.3 °C 19.2 °C 19.1 °C 4300 m 1   0 min 22.2 W/m² 1023.6 hPa
09:30 19.2 °C 18.9 °C 98 % 11 km/h (17 km/h) 0 mm0 mm 19.3 °C 19.3 °C 19.1 °C 4430 m 1   0 min 24.2 W/m² 1023.5 hPa
09:24 19.1 °C 18.8 °C 98 % 13 km/h (20 km/h) 0 mm0 mm 19.3 °C 19.2 °C 19.1 °C 4050 m 1   0 min 22.1 W/m² 1023.5 hPa
09:18 19.1 °C 18.8 °C 98 % 13 km/h (20 km/h) 0 mm0 mm 19.3 °C 19.3 °C 19.1 °C 3760 m 1   0 min 25.2 W/m² 1023.4 hPa
09:12 19.1 °C 18.6 °C 97 % 13 km/h (18 km/h) 0 mm0 mm 19.3 °C 19.3 °C 19.1 °C 4480 m 0   0 min 31.3 W/m² 1023.4 hPa
09:06 19.1 °C 18.6 °C 97 % 13 km/h (19 km/h) 0 mm0 mm 19.3 °C 19.3 °C 19.1 °C 4650 m 0 min 23.5 W/m² 1023.3 hPa
09:00 19.1 °C 18.6 °C 97 % 14 km/h (19 km/h) 0 mm0 mm 19.3 °C 19.3 °C 19.1 °C 5000 m 0   0 min 27.1 W/m² 1023.3 hPa 8 Octas
08:54 19 °C 18.5 °C 97 % 13 km/h (18 km/h) 0 mm0 mm 19.3 °C 19.3 °C 19.1 °C 8180 m 0   0 min 17.7 W/m² 1023.4 hPa
08:48 19 °C 18.5 °C 97 % 12 km/h (19 km/h) 0 mm0 mm 19.3 °C 19.3 °C 19.1 °C 10140 m 0   0 min 15.8 W/m² 1023.4 hPa
08:42 18.9 °C 18.2 °C 96 % 12 km/h (18 km/h) 0 mm0 mm 19.3 °C 19.2 °C 19.1 °C 10030 m 0   0 min 12.7 W/m² 1023.3 hPa
08:36 18.9 °C 18.2 °C 96 % 12 km/h (18 km/h) 0 mm0 mm 19.3 °C 19.3 °C 19.1 °C 13090 m 0   0 min 11.4 W/m² 1023.4 hPa
08:30 18.8 °C 18.3 °C 97 % 12 km/h (20 km/h) 0 mm0 mm 19.3 °C 19.2 °C 19.1 °C 17970 m 0   0 min 8.5 W/m² 1023.3 hPa
08:24 18.8 °C 18.3 °C 97 % 11 km/h (19 km/h) 0 mm0 mm 19.3 °C 19.3 °C 19.1 °C 39430 m 0   0 min 0 W/m² 1023.3 hPa
08:18 18.7 °C 18.2 °C 97 % 10 km/h (19 km/h) 0 mm0 mm 19.3 °C 19.3 °C 19.1 °C 19850 m 0   0 min 0 W/m² 1023.3 hPa
08:12 18.6 °C 18.1 °C 97 % 9 km/h (14 km/h) 0 mm0 mm 19.4 °C 19.3 °C 19.1 °C 19870 m 0   0 min 0 W/m² 1023.2 hPa
08:06 18.6 °C 18.1 °C 97 % 9 km/h (13 km/h) 0 mm0 mm 19.3 °C 19.3 °C 19.1 °C 19450 m 0   0 min 0 W/m² 1023.2 hPa
08:00 18.5 °C 18 °C 97 % 9 km/h (13 km/h) 0 mm0 mm 19.3 °C 19.3 °C 19.1 °C 18580 m 0   0 min 0 W/m² 1023.1 hPa 8 Octas
07:54 18.4 °C 17.9 °C 97 % 9 km/h (13 km/h) 0 mm0 mm 19.3 °C 19.3 °C 19.1 °C 18340 m 0   0 min 0 W/m² 1023.1 hPa
07:48 18.4 °C 17.9 °C 97 % 8 km/h (13 km/h) 0 mm0 mm 19.3 °C 19.3 °C 19.1 °C 19250 m 0   0 min 0 W/m² 1023.1 hPa
07:42 18.4 °C 17.9 °C 97 % 9 km/h (13 km/h) 0 mm0 mm 19.4 °C 19.3 °C 19.1 °C 35970 m 0   0 min 0 W/m² 1023.1 hPa
07:36 18.3 °C 17.7 °C 96 % 9 km/h (13 km/h) 0 mm0 mm 19.4 °C 19.3 °C 19.1 °C 38280 m 0   0 min 0 W/m² 1023.1 hPa
07:30 18.3 °C 17.7 °C 96 % 8 km/h (11 km/h) 0 mm0 mm 19.3 °C 19.3 °C 19.1 °C 40320 m 0   0 min 0 W/m² 1023.1 hPa
07:24 18.3 °C 17.7 °C 96 % 9 km/h (12 km/h) 0 mm0 mm 19.4 °C 19.3 °C 19.1 °C 42490 m 0   0 min 0 W/m² 1022.9 hPa
07:18 18.3 °C 17.7 °C 96 % 10 km/h (12 km/h) 0 mm0 mm 19.3 °C 19.3 °C 19.1 °C 46120 m 0   0 min 0 W/m² 1022.8 hPa
07:12 18.3 °C 17.5 °C 95 % 10 km/h (13 km/h) 0 mm0 mm 19.4 °C 19.3 °C 19.1 °C 49100 m 0   0 min 0 W/m² 1022.8 hPa
07:06 18.3 °C 17.5 °C 95 % 10 km/h (13 km/h) 0 mm0 mm 19.4 °C 19.3 °C 19.1 °C 51450 m 0   0 min 0 W/m² 1023 hPa
07:00 18.3 °C 17.3 °C 94 % 10 km/h (14 km/h) 0 mm0 mm 19.4 °C 19.3 °C 19.1 °C 54050 m 0   0 min 0 W/m² 1023 hPa 8 Octas
06:54 18.4 °C 17.4 °C 94 % 10 km/h (14 km/h) 0 mm0 mm 19.4 °C 19.3 °C 19.1 °C 57090 m 0   0 min 0 W/m² 1022.9 hPa
06:48 18.4 °C 17.4 °C 94 % 10 km/h (15 km/h) 0 mm0 mm 19.4 °C 19.3 °C 19.1 °C 59270 m 0   0 min 0 W/m² 1022.9 hPa
06:42 18.4 °C 17.4 °C 94 % 10 km/h (15 km/h) 0 mm0 mm 19.4 °C 19.3 °C 19.1 °C 59980 m 0   0 min 0 W/m² 1022.9 hPa
06:36 18.4 °C 17.4 °C 94 % 10 km/h (16 km/h) 0 mm0 mm 19.4 °C 19.3 °C 19.1 °C 60000 m 0   0 min 0 W/m² 1022.9 hPa
06:30 18.3 °C 17.3 °C 94 % 12 km/h (19 km/h) 0 mm0 mm 19.4 °C 19.3 °C 19.1 °C 60000 m 0   0 min 0 W/m² 1023 hPa
06:24 18.4 °C 17.2 °C 93 % 12 km/h (19 km/h) 0 mm0 mm 19.4 °C 19.3 °C 19.1 °C 60000 m 0   0 min 0 W/m² 1023 hPa
06:18 18.4 °C 17.4 °C 94 % 12 km/h (19 km/h) 0 mm0 mm 19.4 °C 19.3 °C 19.1 °C 59990 m 0   0 min 0 W/m² 1023 hPa
06:12 18.3 °C 17.3 °C 94 % 11 km/h (19 km/h) 0 mm0 mm 19.4 °C 19.3 °C 19.1 °C 59810 m 0   0 min 0 W/m² 1023.1 hPa
06:06 18.3 °C 17.3 °C 94 % 11 km/h (17 km/h) 0 mm0 mm 19.4 °C 19.3 °C 19.1 °C 59180 m 0   0 min 0 W/m² 1023.1 hPa
06:00 18.3 °C 17.3 °C 94 % 12 km/h (19 km/h) 0 mm0 mm 19.4 °C 19.3 °C 19.1 °C 56300 m 0   0 min 0 W/m² 1023.1 hPa 8 Octas
05:54 18.3 °C 17.1 °C 93 % 13 km/h (19 km/h) 0 mm0 mm 19.4 °C 19.3 °C 19.1 °C 57750 m 0   0 min 0 W/m² 1023 hPa
05:48 18.3 °C 17.1 °C 93 % 12 km/h (18 km/h) 0 mm0 mm 19.4 °C 19.3 °C 19.1 °C 54620 m 0   0 min 0 W/m² 1022.7 hPa
05:42 18.3 °C 17.1 °C 93 % 13 km/h (18 km/h) 0 mm0 mm 19.5 °C 19.3 °C 19.1 °C 19890 m 0   0 min 0 W/m² 1022.6 hPa
05:36 18.4 °C 17.2 °C 93 % 12 km/h (18 km/h) 0 mm0 mm 19.4 °C 19.3 °C 19.1 °C 19150 m 0   0 min 0 W/m² 1022.5 hPa
05:30 18.4 °C 17.2 °C 93 % 13 km/h (22 km/h) 0 mm0 mm 19.5 °C 19.3 °C 19.1 °C 53260 m 0   0 min 0 W/m² 1022.5 hPa
05:24 18.4 °C 17.2 °C 93 % 13 km/h (22 km/h) 0 mm0 mm 19.5 °C 19.3 °C 19.1 °C 55430 m 0   0 min 0 W/m² 1022.6 hPa
05:18 18.4 °C 17.2 °C 93 % 13 km/h (21 km/h) 0 mm0 mm 19.5 °C 19.3 °C 19.1 °C 57490 m 0   0 min 0 W/m² 1022.7 hPa
05:12 18.4 °C 17.2 °C 93 % 13 km/h (21 km/h) 0 mm0 mm 19.5 °C 19.3 °C 19.1 °C 59940 m 0   0 min 0 W/m² 1022.7 hPa
05:06 18.4 °C 17.4 °C 94 % 13 km/h (21 km/h) 0 mm0 mm 19.5 °C 19.3 °C 19.1 °C 59940 m 0   0 min 0 W/m² 1022.7 hPa
05:00 18.4 °C 17.4 °C 94 % 10 km/h (16 km/h) 0 mm0 mm 19.5 °C 19.3 °C 19.1 °C 60000 m 0   0 min 0 W/m² 1022.7 hPa 8 Octas
04:54 18.4 °C 17.4 °C 94 % 10 km/h (16 km/h) 0 mm0 mm 19.5 °C 19.3 °C 19.1 °C 60000 m 0   0 min 0 W/m² 1022.7 hPa
04:48 18.5 °C 17.5 °C 94 % 10 km/h (16 km/h) 0 mm0 mm 19.5 °C 19.3 °C 19.1 °C 59810 m 0   0 min 0 W/m² 1022.7 hPa
04:42 18.5 °C 17.5 °C 94 % 10 km/h (15 km/h) 0 mm0 mm 19.5 °C 19.3 °C 19.1 °C 58820 m 0   0 min 0 W/m² 1022.7 hPa
04:36 18.5 °C 17.7 °C 95 % 9 km/h (14 km/h) 0 mm0 mm 19.5 °C 19.3 °C 19.1 °C 57680 m 0   0 min 0 W/m² 1022.7 hPa
04:30 18.5 °C 17.7 °C 95 % 9 km/h (15 km/h) 0 mm0 mm 19.5 °C 19.3 °C 19.1 °C 55400 m 0   0 min 0 W/m² 1022.7 hPa
04:24 18.6 °C 17.8 °C 95 % 10 km/h (15 km/h) 0 mm0 mm 19.5 °C 19.3 °C 19.1 °C 54660 m 0   0 min 0 W/m² 1022.7 hPa
04:18 18.6 °C 17.8 °C 95 % 10 km/h (18 km/h) 0 mm0 mm 19.5 °C 19.3 °C 19.1 °C 54680 m 0   0 min 0 W/m² 1022.8 hPa
04:12 18.6 °C 17.8 °C 95 % 11 km/h (18 km/h) 0 mm0 mm 19.5 °C 19.3 °C 19.1 °C 50870 m 0   0 min 0 W/m² 1022.8 hPa
04:06 18.7 °C 17.9 °C 95 % 10 km/h (16 km/h) 0 mm0 mm 19.5 °C 19.3 °C 19.1 °C 46530 m 0   0 min 0 W/m² 1022.8 hPa
04:00 18.7 °C 17.9 °C 95 % 9 km/h (14 km/h) 0 mm0 mm 19.5 °C 19.3 °C 19.1 °C 19980 m 0   0 min 0 W/m² 1022.7 hPa 8 Octas
03:54 18.8 °C 18 °C 95 % 10 km/h (17 km/h) 0 mm0 mm 19.5 °C 19.3 °C 19.1 °C 19750 m 0   0 min 0 W/m² 1022.7 hPa
03:48 18.9 °C 18.1 °C 95 % 12 km/h (21 km/h) 0 mm0 mm 19.5 °C 19.4 °C 19.1 °C 19140 m 0   0 min 0 W/m² 1022.8 hPa
03:42 18.9 °C 18.1 °C 95 % 12 km/h (19 km/h) 0 mm0 mm 19.5 °C 19.3 °C 19.1 °C 19410 m 0   0 min 0 W/m² 1022.9 hPa
03:36 19 °C 18.2 °C 95 % 12 km/h (18 km/h) 0 mm0 mm 19.5 °C 19.4 °C 19.1 °C 17850 m 0   0 min 0 W/m² 1023 hPa
03:30 19 °C 18.2 °C 95 % 13 km/h (21 km/h) 0 mm0 mm 19.5 °C 19.4 °C 19.1 °C 16370 m 0   0 min 0 W/m² 1023 hPa
03:24 19 °C 18.2 °C 95 % 14 km/h (20 km/h) 0 mm0 mm 19.5 °C 19.4 °C 19.1 °C 18880 m 0   0 min 0 W/m² 1023.1 hPa
03:18 19 °C 18.2 °C 95 % 12 km/h (23 km/h) 0 mm0 mm 19.5 °C 19.3 °C 19.1 °C 19420 m 0   0 min 0 W/m² 1023 hPa
03:12 19 °C 18.2 °C 95 % 12 km/h (23 km/h) 0 mm0 mm 19.5 °C 19.3 °C 19.1 °C 19920 m 0   0 min 0 W/m² 1023.1 hPa
03:06 19 °C 18.3 °C 96 % 12 km/h (22 km/h) 0 mm0 mm 19.6 °C 19.4 °C 19.1 °C 19710 m 0   0 min 0 W/m² 1023.2 hPa
03:00 19 °C 18.3 °C 96 % 13 km/h (22 km/h) 0 mm0 mm 19.6 °C 19.4 °C 19.1 °C 19580 m 0   0 min 0 W/m² 1023.2 hPa 8 Octas
02:54 19 °C 18.2 °C 95 % 12 km/h (20 km/h) 0 mm0 mm 19.5 °C 19.4 °C 19.1 °C 40780 m 0   0 min 0 W/m² 1023.1 hPa
02:48 18.9 °C 18.1 °C 95 % 11 km/h (15 km/h) 0 mm0 mm 19.6 °C 19.4 °C 19.1 °C 45110 m 0   0 min 0 W/m² 1023 hPa
02:42 18.9 °C 18.1 °C 95 % 12 km/h (18 km/h) 0 mm0 mm 19.6 °C 19.4 °C 19.1 °C 44750 m 0   0 min 0 W/m² 1022.8 hPa
02:36 18.9 °C 18.1 °C 95 % 12 km/h (19 km/h) 0 mm0 mm 19.6 °C 19.3 °C 19.1 °C 41460 m 0   0 min 0 W/m² 1022.7 hPa
02:30 19 °C 18.2 °C 95 % 12 km/h (19 km/h) 0 mm0 mm 19.6 °C 19.4 °C 19.1 °C 41510 m 0   0 min 0 W/m² 1022.6 hPa
02:24 19 °C 18 °C 94 % 12 km/h (19 km/h) 0 mm0 mm 19.6 °C 19.4 °C 19.1 °C 44910 m 0   0 min 0 W/m² 1023 hPa
02:18 19.1 °C 18.1 °C 94 % 11 km/h (19 km/h) 0 mm0 mm 19.6 °C 19.4 °C 19.1 °C 48810 m 0   0 min 0 W/m² 1023.2 hPa
02:12 19.1 °C 18.1 °C 94 % 13 km/h (19 km/h) 0 mm0 mm 19.6 °C 19.4 °C 19.1 °C 50410 m 0   0 min 0 W/m² 1023.3 hPa
02:06 19.1 °C 18.1 °C 94 % 13 km/h (19 km/h) 0 mm0 mm 19.6 °C 19.4 °C 19.1 °C 50690 m 0   0 min 0 W/m² 1023.4 hPa
02:00 19.1 °C 18.1 °C 94 % 13 km/h (23 km/h) 0 mm0 mm 19.6 °C 19.4 °C 19.1 °C 51510 m 0   0 min 0 W/m² 1023.4 hPa 8 Octas
01:54 19.1 °C 18.1 °C 94 % 15 km/h (24 km/h) 0 mm0 mm 19.6 °C 19.4 °C 19.1 °C 50370 m 0   0 min 0 W/m² 1023.5 hPa
01:48 19.2 °C 18 °C 93 % 15 km/h (25 km/h) 0 mm0 mm 19.6 °C 19.4 °C 19.1 °C 49930 m 0   0 min 0 W/m² 1023.2 hPa
01:42 19.2 °C 18 °C 93 % 13 km/h (22 km/h) 0 mm0 mm 19.6 °C 19.4 °C 19.1 °C 52770 m 0   0 min 0 W/m² 1023.4 hPa
01:36 19.2 °C 17.9 °C 92 % 12 km/h (20 km/h) 0 mm0 mm 19.6 °C 19.3 °C 19.1 °C 57460 m 0   0 min 0 W/m² 1023.4 hPa
01:30 19.2 °C 17.9 °C 92 % 12 km/h (18 km/h) 0 mm0 mm 19.6 °C 19.4 °C 19.1 °C 55960 m 0   0 min 0 W/m² 1023.4 hPa
01:24 19.3 °C 18.1 °C 93 % 14 km/h (24 km/h) 0 mm0 mm 19.6 °C 19.4 °C 19.1 °C 50290 m 0   0 min 0 W/m² 1023.4 hPa
01:18 19.3 °C 18.3 °C 94 % 14 km/h (24 km/h) 0 mm0 mm 19.6 °C 19.3 °C 19.1 °C 46900 m 0   0 min 0 W/m² 1023.4 hPa
01:12 19.3 °C 18.3 °C 94 % 14 km/h (22 km/h) 0 mm0 mm 19.6 °C 19.4 °C 19.1 °C 45470 m 0   0 min 0 W/m² 1023.4 hPa
01:06 19.3 °C 18.3 °C 94 % 15 km/h (24 km/h) 0 mm0 mm 19.6 °C 19.4 °C 19.1 °C 45180 m 0   0 min 0 W/m² 1023.3 hPa
01:00 19.3 °C 18.3 °C 94 % 14 km/h (22 km/h) 0 mm0 mm 19.6 °C 19.3 °C 19.1 °C 48840 m 0   0 min 0 W/m² 1023.3 hPa 8 Octas
00:54 19.3 °C 18.1 °C 93 % 13 km/h (21 km/h) 0 mm0 mm 19.6 °C 19.4 °C 19.1 °C 47170 m 0   0 min 0 W/m² 1023.3 hPa
00:48 19.3 °C 18.3 °C 94 % 15 km/h (27 km/h) 0 mm0 mm 19.7 °C 19.4 °C 19.1 °C 43530 m 0   0 min 0 W/m² 1023.4 hPa
00:42 19.3 °C 18.3 °C 94 % 18 km/h (27 km/h) 0 mm0 mm 19.7 °C 19.4 °C 19.1 °C 41580 m 0   0 min 0 W/m² 1023.4 hPa
00:36 19.3 °C 18.3 °C 94 % 16 km/h (27 km/h) 0 mm0 mm 19.7 °C 19.3 °C 19.1 °C 42350 m 0   0 min 0 W/m² 1023.4 hPa
00:30 19.3 °C 18.3 °C 94 % 17 km/h (27 km/h) 0 mm0 mm 19.6 °C 19.4 °C 19.1 °C 41340 m 0   0 min 0 W/m² 1023.3 hPa
00:24 19.3 °C 18.3 °C 94 % 16 km/h (27 km/h) 0 mm0 mm 19.7 °C 19.3 °C 19.1 °C 19870 m 0   0 min 0 W/m² 1023.2 hPa
00:18 19.3 °C 18.3 °C 94 % 14 km/h (22 km/h) 0 mm0 mm 19.7 °C 19.4 °C 19.1 °C 19870 m 0   0 min 0 W/m² 1023.1 hPa
00:12 19.3 °C 18.3 °C 94 % 13 km/h (20 km/h) 0 mm0 mm 19.7 °C 19.4 °C 19.1 °C 40160 m 0   0 min 0 W/m² 1023.2 hPa
00:06 19.3 °C 18.3 °C 94 % 14 km/h (22 km/h) 0 mm0 mm 19.7 °C 19.3 °C 19.1 °C 40670 m 0   0 min 0 W/m² 1023.2 hPa
00:00 19.3 °C 18.3 °C 94 % 14 km/h (22 km/h) 0 mm0 mm 19.7 °C 19.3 °C 19.1 °C 42590 m 0   0 min 0 W/m² 1023.3 hPa 8 Octas

Données via Météo-France

Relevés météo à Quimper

Cette page rassemble les observations de la station de Quimper : température, humidité, vent, précipitations et pression atmosphérique. Les graphiques facilitent le suivi de la journée, tandis que le tableau donne accès aux mesures horaires et infra-horaires disponibles.

Pour replacer ces mesures dans leur contexte, consultez la climatologie de Quimper ainsi que ses normales et records. Retrouvez aussi la carte des observations météo en temps réel.